sensor_id;sensor_type;location;lat;lon;timestamp;pressure;altitude;pressure_sealevel;temperature;humidity
20368;BME280;10343;52.402;9.796;2023-01-30T00:01:03;100806.66;;;5.94;81.45
20368;BME280;10343;52.402;9.796;2023-01-30T00:03:31;100790.81;;;6.22;80.58
20368;BME280;10343;52.402;9.796;2023-01-30T00:05:59;100776.69;;;6.45;79.66
20368;BME280;10343;52.402;9.796;2023-01-30T00:08:29;100770.47;;;6.60;78.98
20368;BME280;10343;52.402;9.796;2023-01-30T00:11:02;100755.66;;;6.36;79.12
20368;BME280;10343;52.402;9.796;2023-01-30T00:13:31;100759.94;;;6.54;77.98
20368;BME280;10343;52.402;9.796;2023-01-30T00:15:59;100764.47;;;6.22;80.10
20368;BME280;10343;52.402;9.796;2023-01-30T00:18:27;100755.81;;;5.85;83.41
20368;BME280;10343;52.402;9.796;2023-01-30T00:20:55;100753.97;;;6.11;81.46
20368;BME280;10343;52.402;9.796;2023-01-30T00:23:24;100768.78;;;6.39;80.88
20368;BME280;10343;52.402;9.796;2023-01-30T00:25:54;100761.75;;;6.42;80.90
20368;BME280;10343;52.402;9.796;2023-01-30T00:28:22;100768.94;;;6.08;81.09
20368;BME280;10343;52.402;9.796;2023-01-30T00:30:51;100757.53;;;6.03;82.72
20368;BME280;10343;52.402;9.796;2023-01-30T00:33:24;100761.91;;;6.05;83.84
20368;BME280;10343;52.402;9.796;2023-01-30T00:35:54;100751.41;;;5.85;83.81
20368;BME280;10343;52.402;9.796;2023-01-30T00:38:22;100766.25;;;6.14;83.00
20368;BME280;10343;52.402;9.796;2023-01-30T00:40:51;100745.16;;;6.26;84.14
20368;BME280;10343;52.402;9.796;2023-01-30T00:43:20;100756.66;;;6.02;83.02
20368;BME280;10343;52.402;9.796;2023-01-30T00:46:11;100729.44;;;6.11;85.65
20368;BME280;10343;52.402;9.796;2023-01-30T00:48:58;100713.59;;;6.14;85.15
20368;BME280;10343;52.402;9.796;2023-01-30T00:51:26;100718.94;;;5.86;88.09
20368;BME280;10343;52.402;9.796;2023-01-30T00:53:54;100727.41;;;6.59;84.42
20368;BME280;10343;52.402;9.796;2023-01-30T00:56:22;100704.81;;;6.18;87.80
20368;BME280;10343;52.402;9.796;2023-01-30T00:58:51;100698.78;;;5.82;87.49
20368;BME280;10343;52.402;9.796;2023-01-30T01:01:19;100697.94;;;5.82;89.91
20368;BME280;10343;52.402;9.796;2023-01-30T01:03:48;100683.91;;;5.76;91.70
20368;BME280;10343;52.402;9.796;2023-01-30T01:06:16;100680.41;;;5.73;93.00
20368;BME280;10343;52.402;9.796;2023-01-30T01:08:44;100668.09;;;5.84;94.18
20368;BME280;10343;52.402;9.796;2023-01-30T01:11:12;100667.25;;;5.70;95.64
20368;BME280;10343;52.402;9.796;2023-01-30T01:13:55;100679.44;;;6.03;94.66
20368;BME280;10343;52.402;9.796;2023-01-30T01:16:24;100670.50;;;6.32;90.72
20368;BME280;10343;52.402;9.796;2023-01-30T01:18:53;100648.91;;;5.48;94.92
20368;BME280;10343;52.402;9.796;2023-01-30T01:21:21;100631.13;;;6.15;93.11
20368;BME280;10343;52.402;9.796;2023-01-30T01:23:52;100626.13;;;5.53;95.52
20368;BME280;10343;52.402;9.796;2023-01-30T01:26:20;100609.28;;;5.99;95.94
20368;BME280;10343;52.402;9.796;2023-01-30T01:28:48;100602.28;;;6.00;96.90
20368;BME280;10343;52.402;9.796;2023-01-30T01:31:18;100599.63;;;5.97;98.40
20368;BME280;10343;52.402;9.796;2023-01-30T01:33:46;100566.25;;;6.03;100.00
20368;BME280;10343;52.402;9.796;2023-01-30T01:36:14;100547.13;;;5.69;100.00
20368;BME280;10343;52.402;9.796;2023-01-30T01:39:02;100516.41;;;5.80;100.00
20368;BME280;10343;52.402;9.796;2023-01-30T01:41:30;100510.09;;;6.07;100.00
20368;BME280;10343;52.402;9.796;2023-01-30T01:43:59;100515.38;;;6.06;100.00
20368;BME280;10343;52.402;9.796;2023-01-30T01:46:33;100514.41;;;6.18;100.00
20368;BME280;10343;52.402;9.796;2023-01-30T01:49:05;100532.97;;;5.94;100.00
20368;BME280;10343;52.402;9.796;2023-01-30T01:51:38;100530.13;;;6.30;100.00
20368;BME280;10343;52.402;9.796;2023-01-30T01:54:09;100513.66;;;6.02;100.00
20368;BME280;10343;52.402;9.796;2023-01-30T01:56:41;100507.47;;;6.07;100.00
20368;BME280;10343;52.402;9.796;2023-01-30T01:59:13;100501.38;;;5.94;100.00
20368;BME280;10343;52.402;9.796;2023-01-30T02:01:47;100504.94;;;5.87;100.00
20368;BME280;10343;52.402;9.796;2023-01-30T02:04:16;100513.25;;;6.51;99.26
20368;BME280;10343;52.402;9.796;2023-01-30T02:07:04;100504.66;;;6.31;96.09
20368;BME280;10343;52.402;9.796;2023-01-30T02:09:32;100487.03;;;6.42;99.53
20368;BME280;10343;52.402;9.796;2023-01-30T02:12:01;100492.44;;;6.23;100.00
20368;BME280;10343;52.402;9.796;2023-01-30T02:14:32;100484.63;;;6.12;100.00
20368;BME280;10343;52.402;9.796;2023-01-30T02:17:02;100487.13;;;6.26;100.00
20368;BME280;10343;52.402;9.796;2023-01-30T02:19:34;100494.00;;;6.43;97.70
20368;BME280;10343;52.402;9.796;2023-01-30T02:25:38;100499.31;;;6.40;100.00
20368;BME280;10343;52.402;9.796;2023-01-30T02:28:38;100481.91;;;6.23;100.00
20368;BME280;10343;52.402;9.796;2023-01-30T02:31:19;100467.66;;;6.43;98.67
20368;BME280;10343;52.402;9.796;2023-01-30T02:33:59;100488.16;;;7.00;97.04
20368;BME280;10343;52.402;9.796;2023-01-30T02:36:39;100487.50;;;6.79;97.35
20368;BME280;10343;52.402;9.796;2023-01-30T02:39:18;100460.00;;;6.17;100.00
20368;BME280;10343;52.402;9.796;2023-01-30T02:41:58;100449.72;;;6.79;99.81
20368;BME280;10343;52.402;9.796;2023-01-30T02:44:33;100456.00;;;6.69;98.28
20368;BME280;10343;52.402;9.796;2023-01-30T02:47:07;100436.66;;;6.73;99.33
20368;BME280;10343;52.402;9.796;2023-01-30T02:49:40;100439.03;;;6.91;97.52
20368;BME280;10343;52.402;9.796;2023-01-30T02:52:10;100436.56;;;6.77;98.46
20368;BME280;10343;52.402;9.796;2023-01-30T02:54:39;100434.09;;;7.35;93.94
20368;BME280;10343;52.402;9.796;2023-01-30T02:57:16;100433.63;;;7.04;97.04
20368;BME280;10343;52.402;9.796;2023-01-30T02:59:47;100433.19;;;6.68;98.31
20368;BME280;10343;52.402;9.796;2023-01-30T03:02:35;100417.31;;;6.74;98.90
20368;BME280;10343;52.402;9.796;2023-01-30T03:05:37;100408.13;;;7.06;100.00
20368;BME280;10343;52.402;9.796;2023-01-30T03:08:19;100420.06;;;6.65;99.17
20368;BME280;10343;52.402;9.796;2023-01-30T03:10:54;100398.25;;;7.23;99.56
20368;BME280;10343;52.402;9.796;2023-01-30T03:13:30;100403.25;;;7.42;95.25
20368;BME280;10343;52.402;9.796;2023-01-30T03:16:04;100396.97;;;6.85;99.40
20368;BME280;10343;52.402;9.796;2023-01-30T03:18:39;100391.50;;;7.01;100.00
20368;BME280;10343;52.402;9.796;2023-01-30T03:21:07;100381.78;;;7.06;100.00
20368;BME280;10343;52.402;9.796;2023-01-30T03:23:35;100349.63;;;6.80;100.00
20368;BME280;10343;52.402;9.796;2023-01-30T03:26:04;100349.72;;;7.35;100.00
20368;BME280;10343;52.402;9.796;2023-01-30T03:28:33;100339.06;;;6.79;100.00
20368;BME280;10343;52.402;9.796;2023-01-30T03:31:03;100307.94;;;6.42;100.00
20368;BME280;10343;52.402;9.796;2023-01-30T03:33:31;100302.75;;;6.36;100.00
20368;BME280;10343;52.402;9.796;2023-01-30T03:36:00;100320.59;;;7.43;100.00
20368;BME280;10343;52.402;9.796;2023-01-30T03:38:28;100306.97;;;7.13;100.00
20368;BME280;10343;52.402;9.796;2023-01-30T03:40:56;100311.09;;;7.31;100.00
20368;BME280;10343;52.402;9.796;2023-01-30T03:43:24;100306.72;;;7.28;100.00
20368;BME280;10343;52.402;9.796;2023-01-30T03:45:52;100300.28;;;6.90;100.00
20368;BME280;10343;52.402;9.796;2023-01-30T03:48:20;100303.31;;;7.23;100.00
20368;BME280;10343;52.402;9.796;2023-01-30T03:50:48;100300.22;;;7.51;100.00
20368;BME280;10343;52.402;9.796;2023-01-30T03:53:17;100286.31;;;6.85;100.00
20368;BME280;10343;52.402;9.796;2023-01-30T03:55:45;100284.00;;;7.21;100.00
20368;BME280;10343;52.402;9.796;2023-01-30T03:58:13;100302.72;;;8.09;100.00
20368;BME280;10343;52.402;9.796;2023-01-30T04:00:40;100291.25;;;7.61;100.00
20368;BME280;10343;52.402;9.796;2023-01-30T04:03:08;100278.47;;;7.88;100.00
20368;BME280;10343;52.402;9.796;2023-01-30T04:05:36;100287.47;;;7.25;100.00
20368;BME280;10343;52.402;9.796;2023-01-30T04:08:06;100282.53;;;7.58;100.00
20368;BME280;10343;52.402;9.796;2023-01-30T04:10:36;100280.03;;;7.50;100.00
20368;BME280;10343;52.402;9.796;2023-01-30T04:13:04;100277.81;;;7.75;100.00
20368;BME280;10343;52.402;9.796;2023-01-30T04:15:32;100271.50;;;7.32;100.00
20368;BME280;10343;52.402;9.796;2023-01-30T04:18:34;100271.59;;;7.28;100.00
20368;BME280;10343;52.402;9.796;2023-01-30T04:21:10;100243.00;;;7.02;100.00
20368;BME280;10343;52.402;9.796;2023-01-30T04:23:38;100257.13;;;7.52;100.00
20368;BME280;10343;52.402;9.796;2023-01-30T04:26:09;100251.44;;;7.24;100.00
20368;BME280;10343;52.402;9.796;2023-01-30T04:28:39;100242.34;;;7.90;100.00
20368;BME280;10343;52.402;9.796;2023-01-30T04:31:07;100248.97;;;8.13;100.00
20368;BME280;10343;52.402;9.796;2023-01-30T04:33:41;100248.00;;;7.19;100.00
20368;BME280;10343;52.402;9.796;2023-01-30T04:36:10;100244.16;;;7.38;100.00
20368;BME280;10343;52.402;9.796;2023-01-30T04:38:40;100242.03;;;8.06;100.00
20368;BME280;10343;52.402;9.796;2023-01-30T04:41:09;100248.78;;;7.25;100.00
20368;BME280;10343;52.402;9.796;2023-01-30T04:43:40;100238.44;;;7.13;100.00
20368;BME280;10343;52.402;9.796;2023-01-30T04:46:25;100238.38;;;7.68;100.00
20368;BME280;10343;52.402;9.796;2023-01-30T04:48:54;100247.66;;;7.40;100.00
20368;BME280;10343;52.402;9.796;2023-01-30T04:51:22;100232.78;;;7.36;100.00
20368;BME280;10343;52.402;9.796;2023-01-30T04:53:50;100239.91;;;7.29;100.00
20368;BME280;10343;52.402;9.796;2023-01-30T04:56:19;100233.63;;;7.37;100.00
20368;BME280;10343;52.402;9.796;2023-01-30T04:58:48;100213.28;;;7.45;100.00
20368;BME280;10343;52.402;9.796;2023-01-30T05:01:21;100229.47;;;7.75;100.00
20368;BME280;10343;52.402;9.796;2023-01-30T05:03:50;100228.63;;;7.73;100.00
20368;BME280;10343;52.402;9.796;2023-01-30T05:06:17;100222.41;;;7.77;100.00
20368;BME280;10343;52.402;9.796;2023-01-30T05:08:47;100211.44;;;7.50;100.00
20368;BME280;10343;52.402;9.796;2023-01-30T05:11:15;100209.13;;;8.24;100.00
20368;BME280;10343;52.402;9.796;2023-01-30T05:13:44;100198.97;;;7.58;100.00
20368;BME280;10343;52.402;9.796;2023-01-30T05:16:13;100202.09;;;7.79;100.00
20368;BME280;10343;52.402;9.796;2023-01-30T05:18:41;100210.94;;;8.22;100.00
20368;BME280;10343;52.402;9.796;2023-01-30T05:21:10;100205.59;;;7.81;100.00
20368;BME280;10343;52.402;9.796;2023-01-30T05:23:38;100234.19;;;8.87;100.00
20368;BME280;10343;52.402;9.796;2023-01-30T05:26:06;100192.56;;;7.72;100.00
20368;BME280;10343;52.402;9.796;2023-01-30T05:28:34;100203.75;;;7.85;100.00
20368;BME280;10343;52.402;9.796;2023-01-30T05:31:05;100195.66;;;7.94;100.00
20368;BME280;10343;52.402;9.796;2023-01-30T05:33:33;100207.66;;;8.10;100.00
20368;BME280;10343;52.402;9.796;2023-01-30T05:36:01;100207.06;;;7.94;100.00
20368;BME280;10343;52.402;9.796;2023-01-30T05:38:29;100212.22;;;8.02;100.00
20368;BME280;10343;52.402;9.796;2023-01-30T05:40:58;100218.13;;;8.13;100.00
20368;BME280;10343;52.402;9.796;2023-01-30T05:43:26;100218.03;;;7.74;100.00
20368;BME280;10343;52.402;9.796;2023-01-30T05:45:55;100209.75;;;8.37;100.00
20368;BME280;10343;52.402;9.796;2023-01-30T05:48:25;100198.44;;;7.86;100.00
20368;BME280;10343;52.402;9.796;2023-01-30T05:50:56;100219.56;;;7.86;100.00
20368;BME280;10343;52.402;9.796;2023-01-30T05:53:27;100209.31;;;8.14;100.00
20368;BME280;10343;52.402;9.796;2023-01-30T05:55:55;100204.00;;;8.16;100.00
20368;BME280;10343;52.402;9.796;2023-01-30T05:58:23;100211.84;;;7.77;100.00
20368;BME280;10343;52.402;9.796;2023-01-30T06:00:51;100208.44;;;7.70;100.00
20368;BME280;10343;52.402;9.796;2023-01-30T06:03:19;100199.06;;;8.01;100.00
20368;BME280;10343;52.402;9.796;2023-01-30T06:05:48;100181.25;;;8.10;100.00
20368;BME280;10343;52.402;9.796;2023-01-30T06:08:16;100177.81;;;7.61;100.00
20368;BME280;10343;52.402;9.796;2023-01-30T06:10:44;100186.50;;;7.67;100.00
20368;BME280;10343;52.402;9.796;2023-01-30T06:13:12;100203.38;;;8.05;100.00
20368;BME280;10343;52.402;9.796;2023-01-30T06:15:39;100201.72;;;7.97;100.00
20368;BME280;10343;52.402;9.796;2023-01-30T06:18:07;100208.44;;;8.14;100.00
20368;BME280;10343;52.402;9.796;2023-01-30T06:20:35;100201.00;;;7.91;100.00
20368;BME280;10343;52.402;9.796;2023-01-30T06:23:04;100219.75;;;8.63;100.00
20368;BME280;10343;52.402;9.796;2023-01-30T06:25:32;100205.69;;;8.20;100.00
20368;BME280;10343;52.402;9.796;2023-01-30T06:27:59;100204.16;;;8.08;100.00
20368;BME280;10343;52.402;9.796;2023-01-30T06:30:27;100190.53;;;7.86;100.00
20368;BME280;10343;52.402;9.796;2023-01-30T06:32:55;100221.03;;;8.45;100.00
20368;BME280;10343;52.402;9.796;2023-01-30T06:35:23;100234.38;;;7.95;100.00
20368;BME280;10343;52.402;9.796;2023-01-30T06:37:51;100230.00;;;7.92;100.00
20368;BME280;10343;52.402;9.796;2023-01-30T06:40:20;100242.75;;;8.15;100.00
20368;BME280;10343;52.402;9.796;2023-01-30T06:42:48;100240.63;;;8.33;100.00
20368;BME280;10343;52.402;9.796;2023-01-30T06:45:17;100264.81;;;8.13;100.00
20368;BME280;10343;52.402;9.796;2023-01-30T06:47:46;100262.56;;;8.37;100.00
20368;BME280;10343;52.402;9.796;2023-01-30T06:50:16;100276.19;;;9.01;100.00
20368;BME280;10343;52.402;9.796;2023-01-30T06:52:46;100272.00;;;8.91;100.00
20368;BME280;10343;52.402;9.796;2023-01-30T06:55:16;100260.75;;;8.40;100.00
20368;BME280;10343;52.402;9.796;2023-01-30T06:57:46;100273.06;;;8.40;100.00
20368;BME280;10343;52.402;9.796;2023-01-30T07:00:17;100270.00;;;8.61;100.00
20368;BME280;10343;52.402;9.796;2023-01-30T07:02:45;100278.78;;;9.03;98.08
20368;BME280;10343;52.402;9.796;2023-01-30T07:05:14;100277.31;;;8.50;97.72
20368;BME280;10343;52.402;9.796;2023-01-30T07:07:42;100283.63;;;8.40;100.00
20368;BME280;10343;52.402;9.796;2023-01-30T07:10:10;100274.53;;;8.09;100.00
20368;BME280;10343;52.402;9.796;2023-01-30T07:12:38;100278.63;;;9.09;99.32
20368;BME280;10343;52.402;9.796;2023-01-30T07:15:08;100293.31;;;9.22;94.42
20368;BME280;10343;52.402;9.796;2023-01-30T07:17:36;100289.09;;;8.30;98.21
20368;BME280;10343;52.402;9.796;2023-01-30T07:20:06;100292.91;;;8.17;99.07
20368;BME280;10343;52.402;9.796;2023-01-30T07:22:35;100288.56;;;8.13;99.89
20368;BME280;10343;52.402;9.796;2023-01-30T07:25:03;100295.47;;;8.20;98.17
20368;BME280;10343;52.402;9.796;2023-01-30T07:27:31;100301.34;;;8.34;95.36
20368;BME280;10343;52.402;9.796;2023-01-30T07:29:59;100297.22;;;8.66;92.59
20368;BME280;10343;52.402;9.796;2023-01-30T07:32:29;100302.16;;;8.82;88.82
20368;BME280;10343;52.402;9.796;2023-01-30T07:34:56;100310.19;;;8.33;91.39
20368;BME280;10343;52.402;9.796;2023-01-30T07:37:24;100309.81;;;8.94;89.27
20368;BME280;10343;52.402;9.796;2023-01-30T07:39:52;100303.75;;;8.00;88.14
20368;BME280;10343;52.402;9.796;2023-01-30T07:42:20;100300.66;;;8.69;86.37
20368;BME280;10343;52.402;9.796;2023-01-30T07:44:48;100292.19;;;8.54;85.56
20368;BME280;10343;52.402;9.796;2023-01-30T07:47:15;100303.06;;;8.81;84.41
20368;BME280;10343;52.402;9.796;2023-01-30T07:49:47;100313.88;;;8.23;84.94
20368;BME280;10343;52.402;9.796;2023-01-30T07:52:14;100312.00;;;8.30;84.83
20368;BME280;10343;52.402;9.796;2023-01-30T07:54:43;100306.91;;;8.19;84.05
20368;BME280;10343;52.402;9.796;2023-01-30T07:57:10;100315.25;;;8.43;83.03
20368;BME280;10343;52.402;9.796;2023-01-30T07:59:38;100327.19;;;8.19;81.38
20368;BME280;10343;52.402;9.796;2023-01-30T08:02:08;100325.31;;;8.71;80.49
20368;BME280;10343;52.402;9.796;2023-01-30T08:04:36;100332.19;;;8.78;78.17
20368;BME280;10343;52.402;9.796;2023-01-30T08:07:06;100333.03;;;8.34;78.71
20368;BME280;10343;52.402;9.796;2023-01-30T08:09:34;100332.31;;;8.72;79.25
20368;BME280;10343;52.402;9.796;2023-01-30T08:12:02;100344.72;;;8.70;77.25
20368;BME280;10343;52.402;9.796;2023-01-30T08:14:29;100344.66;;;9.51;75.66
20368;BME280;10343;52.402;9.796;2023-01-30T08:16:57;100346.94;;;8.88;78.00
20368;BME280;10343;52.402;9.796;2023-01-30T08:19:26;100362.22;;;8.75;76.69
20368;BME280;10343;52.402;9.796;2023-01-30T08:21:53;100358.66;;;8.76;77.79
20368;BME280;10343;52.402;9.796;2023-01-30T08:24:23;100369.06;;;9.25;76.82
20368;BME280;10343;52.402;9.796;2023-01-30T08:26:51;100368.53;;;9.09;75.93
20368;BME280;10343;52.402;9.796;2023-01-30T08:29:19;100359.91;;;8.10;76.66
20368;BME280;10343;52.402;9.796;2023-01-30T08:31:47;100366.09;;;8.57;75.65
20368;BME280;10343;52.402;9.796;2023-01-30T08:34:14;100375.63;;;8.64;75.60
20368;BME280;10343;52.402;9.796;2023-01-30T08:36:42;100371.56;;;7.98;76.83
20368;BME280;10343;52.402;9.796;2023-01-30T08:39:12;100372.03;;;9.11;72.87
20368;BME280;10343;52.402;9.796;2023-01-30T08:41:41;100380.09;;;9.44;70.72
20368;BME280;10343;52.402;9.796;2023-01-30T08:44:10;100375.59;;;9.85;69.77
20368;BME280;10343;52.402;9.796;2023-01-30T08:46:38;100378.47;;;8.97;71.97
20368;BME280;10343;52.402;9.796;2023-01-30T08:49:06;100365.53;;;9.63;73.11
20368;BME280;10343;52.402;9.796;2023-01-30T08:51:34;100379.13;;;9.84;70.16
20368;BME280;10343;52.402;9.796;2023-01-30T08:54:02;100370.13;;;9.17;72.00
20368;BME280;10343;52.402;9.796;2023-01-30T08:56:30;100375.91;;;9.73;73.10
20368;BME280;10343;52.402;9.796;2023-01-30T08:58:59;100374.16;;;9.72;71.57
20368;BME280;10343;52.402;9.796;2023-01-30T09:01:27;100373.78;;;9.12;73.54
20368;BME280;10343;52.402;9.796;2023-01-30T09:03:55;100376.13;;;9.24;71.49
20368;BME280;10343;52.402;9.796;2023-01-30T09:06:23;100383.41;;;9.90;70.61
20368;BME280;10343;52.402;9.796;2023-01-30T09:08:51;100386.22;;;10.18;68.83
20368;BME280;10343;52.402;9.796;2023-01-30T09:11:19;100384.31;;;9.52;70.46
20368;BME280;10343;52.402;9.796;2023-01-30T09:13:47;100379.94;;;10.20;68.29
20368;BME280;10343;52.402;9.796;2023-01-30T09:16:17;100378.19;;;9.49;69.51
20368;BME280;10343;52.402;9.796;2023-01-30T09:18:45;100378.34;;;9.80;67.69
20368;BME280;10343;52.402;9.796;2023-01-30T09:21:13;100397.41;;;9.57;67.28
20368;BME280;10343;52.402;9.796;2023-01-30T09:23:41;100372.63;;;9.61;68.72
20368;BME280;10343;52.402;9.796;2023-01-30T09:26:09;100383.31;;;9.93;66.37
20368;BME280;10343;52.402;9.796;2023-01-30T09:28:37;100379.38;;;9.37;68.67
20368;BME280;10343;52.402;9.796;2023-01-30T09:31:04;100377.63;;;9.36;70.15
20368;BME280;10343;52.402;9.796;2023-01-30T09:33:34;100374.78;;;9.81;67.81
20368;BME280;10343;52.402;9.796;2023-01-30T09:36:02;100377.94;;;9.97;67.68
20368;BME280;10343;52.402;9.796;2023-01-30T09:38:30;100378.06;;;9.91;68.63
20368;BME280;10343;52.402;9.796;2023-01-30T09:41:14;100370.91;;;9.60;67.61
20368;BME280;10343;52.402;9.796;2023-01-30T09:43:53;100400.50;;;8.99;68.98
20368;BME280;10343;52.402;9.796;2023-01-30T09:46:33;100395.75;;;10.25;64.59
20368;BME280;10343;52.402;9.796;2023-01-30T09:49:13;100391.91;;;9.66;65.69
20368;BME280;10343;52.402;9.796;2023-01-30T09:51:54;100392.13;;;8.76;67.49
20368;BME280;10343;52.402;9.796;2023-01-30T09:54:28;100400.81;;;9.25;67.50
20368;BME280;10343;52.402;9.796;2023-01-30T09:57:13;100385.88;;;9.97;65.37
20368;BME280;10343;52.402;9.796;2023-01-30T09:59:55;100386.31;;;9.79;65.44
20368;BME280;10343;52.402;9.796;2023-01-30T10:02:36;100387.63;;;9.23;66.55
20368;BME280;10343;52.402;9.796;2023-01-30T10:05:08;100380.41;;;10.03;66.00
20368;BME280;10343;52.402;9.796;2023-01-30T10:07:48;100380.84;;;9.49;67.28
20368;BME280;10343;52.402;9.796;2023-01-30T10:10:34;100380.69;;;9.93;65.01
20368;BME280;10343;52.402;9.796;2023-01-30T10:13:09;100385.75;;;9.66;64.76
20368;BME280;10343;52.402;9.796;2023-01-30T10:15:47;100393.75;;;9.64;64.91
20368;BME280;10343;52.402;9.796;2023-01-30T10:18:50;100387.03;;;10.20;63.37
20368;BME280;10343;52.402;9.796;2023-01-30T10:21:33;100384.06;;;9.24;65.85
20368;BME280;10343;52.402;9.796;2023-01-30T10:24:26;100385.56;;;9.74;63.79
20368;BME280;10343;52.402;9.796;2023-01-30T10:26:56;100382.44;;;10.93;61.50
20368;BME280;10343;52.402;9.796;2023-01-30T10:29:27;100387.44;;;9.70;62.15
20368;BME280;10343;52.402;9.796;2023-01-30T10:32:00;100376.63;;;10.14;62.40
20368;BME280;10343;52.402;9.796;2023-01-30T10:34:31;100370.13;;;9.55;64.54
20368;BME280;10343;52.402;9.796;2023-01-30T10:37:05;100367.78;;;9.43;65.21
20368;BME280;10343;52.402;9.796;2023-01-30T10:39:40;100359.34;;;9.99;63.47
20368;BME280;10343;52.402;9.796;2023-01-30T10:42:26;100361.06;;;10.01;62.76
20368;BME280;10343;52.402;9.796;2023-01-30T10:45:01;100347.06;;;10.62;62.20
20368;BME280;10343;52.402;9.796;2023-01-30T10:50:29;100338.63;;;9.44;64.88
20368;BME280;10343;52.402;9.796;2023-01-30T10:53:03;100331.84;;;10.38;62.96
20368;BME280;10343;52.402;9.796;2023-01-30T10:55:36;100335.00;;;10.17;62.70
20368;BME280;10343;52.402;9.796;2023-01-30T10:58:14;100362.41;;;9.46;63.37
20368;BME280;10343;52.402;9.796;2023-01-30T11:00:49;100359.63;;;9.88;63.28
20368;BME280;10343;52.402;9.796;2023-01-30T11:03:27;100358.75;;;9.88;60.95
20368;BME280;10343;52.402;9.796;2023-01-30T11:05:59;100352.34;;;9.62;66.58
20368;BME280;10343;52.402;9.796;2023-01-30T11:08:31;100361.22;;;10.28;64.51
20368;BME280;10343;52.402;9.796;2023-01-30T11:11:00;100364.38;;;9.75;65.63
20368;BME280;10343;52.402;9.796;2023-01-30T11:13:46;100363.09;;;9.90;64.85
20368;BME280;10343;52.402;9.796;2023-01-30T11:16:14;100360.78;;;9.76;64.87
20368;BME280;10343;52.402;9.796;2023-01-30T11:18:43;100343.34;;;9.31;77.38
20368;BME280;10343;52.402;9.796;2023-01-30T11:21:32;100341.72;;;9.24;73.38
20368;BME280;10343;52.402;9.796;2023-01-30T11:24:16;100329.59;;;9.89;72.08
20368;BME280;10343;52.402;9.796;2023-01-30T11:26:45;100332.91;;;8.41;78.70
20368;BME280;10343;52.402;9.796;2023-01-30T11:29:23;100292.06;;;8.99;87.14
20368;BME280;10343;52.402;9.796;2023-01-30T11:31:51;100304.94;;;8.74;87.73
20368;BME280;10343;52.402;9.796;2023-01-30T11:34:21;100300.97;;;8.95;85.11
20368;BME280;10343;52.402;9.796;2023-01-30T11:36:49;100314.94;;;8.61;82.83
20368;BME280;10343;52.402;9.796;2023-01-30T11:39:22;100316.69;;;8.14;81.56
20368;BME280;10343;52.402;9.796;2023-01-30T11:42:00;100302.81;;;9.29;77.39
20368;BME280;10343;52.402;9.796;2023-01-30T11:44:32;100308.44;;;8.76;76.78
20368;BME280;10343;52.402;9.796;2023-01-30T11:47:03;100297.63;;;9.26;79.88
20368;BME280;10343;52.402;9.796;2023-01-30T11:49:36;100299.00;;;8.64;78.82
20368;BME280;10343;52.402;9.796;2023-01-30T11:52:22;100302.50;;;9.79;75.59
20368;BME280;10343;52.402;9.796;2023-01-30T11:54:54;100281.78;;;9.25;77.05
20368;BME280;10343;52.402;9.796;2023-01-30T11:57:26;100314.41;;;9.24;75.25
20368;BME280;10343;52.402;9.796;2023-01-30T11:59:55;100316.22;;;9.59;75.67
20368;BME280;10343;52.402;9.796;2023-01-30T12:02:27;100313.84;;;9.11;76.29
20368;BME280;10343;52.402;9.796;2023-01-30T12:04:59;100304.03;;;9.16;77.03
20368;BME280;10343;52.402;9.796;2023-01-30T12:07:29;100299.06;;;8.61;83.01
20368;BME280;10343;52.402;9.796;2023-01-30T12:10:00;100296.25;;;8.69;85.54
20368;BME280;10343;52.402;9.796;2023-01-30T12:12:48;100315.50;;;8.76;87.66
20368;BME280;10343;52.402;9.796;2023-01-30T12:15:22;100173.66;;;10.10;100.00
20368;BME280;10343;52.402;9.796;2023-01-30T12:17:56;99839.97;;;14.92;100.00
20368;BME280;10343;52.402;9.796;2023-01-30T12:20:34;99850.63;;;19.93;100.00
20368;BME280;10343;52.402;9.796;2023-01-30T12:23:10;99763.16;;;18.77;0.00
20368;BME280;10343;52.402;9.796;2023-01-30T12:25:47;99898.50;;;21.28;100.00
20368;BME280;10343;52.402;9.796;2023-01-30T12:28:27;100002.94;;;19.31;100.00
20368;BME280;10343;52.402;9.796;2023-01-30T12:31:00;99791.53;;;17.64;100.00
20368;BME280;10343;52.402;9.796;2023-01-30T12:33:35;99884.59;;;20.18;100.00
20368;BME280;10343;52.402;9.796;2023-01-30T12:36:13;100052.50;;;22.26;100.00
20368;BME280;10343;52.402;9.796;2023-01-30T12:38:56;100042.38;;;23.46;100.00
20368;BME280;10343;52.402;9.796;2023-01-30T12:41:41;99641.09;;;10.40;100.00
20368;BME280;10343;52.402;9.796;2023-01-30T12:44:23;99687.34;;;9.57;100.00
20368;BME280;10343;52.402;9.796;2023-01-30T12:47:08;99733.38;;;9.26;100.00
20368;BME280;10343;52.402;9.796;2023-01-30T12:52:44;99799.88;;;7.89;100.00
20368;BME280;10343;52.402;9.796;2023-01-30T12:55:28;99823.69;;;8.83;100.00
20368;BME280;10343;52.402;9.796;2023-01-30T12:58:06;99864.03;;;9.20;100.00
20368;BME280;10343;52.402;9.796;2023-01-30T13:00:48;99895.69;;;8.60;100.00
20368;BME280;10343;52.402;9.796;2023-01-30T13:03:25;99976.25;;;8.08;100.00
20368;BME280;10343;52.402;9.796;2023-01-30T13:06:06;100141.44;;;7.77;100.00
20368;BME280;10343;52.402;9.796;2023-01-30T13:08:53;100230.22;;;9.76;100.00
20368;BME280;10343;52.402;9.796;2023-01-30T13:11:40;100284.94;;;9.03;100.00
20368;BME280;10343;52.402;9.796;2023-01-30T13:14:20;100298.09;;;9.05;100.00
20368;BME280;10343;52.402;9.796;2023-01-30T13:17:01;100312.56;;;8.88;100.00
20368;BME280;10343;52.402;9.796;2023-01-30T13:19:37;100313.88;;;10.16;100.00
20368;BME280;10343;52.402;9.796;2023-01-30T13:22:14;100308.41;;;9.89;100.00
20368;BME280;10343;52.402;9.796;2023-01-30T13:24:58;100332.81;;;9.28;100.00
20368;BME280;10343;52.402;9.796;2023-01-30T13:27:33;100328.78;;;9.51;100.00
20368;BME280;10343;52.402;9.796;2023-01-30T13:30:07;100334.16;;;9.48;100.00